createdAt,value
2022-11-20T00:01:29.344Z,17.05
2022-11-20T00:03:58.680Z,17.95
2022-11-20T00:06:26.401Z,16.27
2022-11-20T00:08:56.073Z,16.25
2022-11-20T00:11:23.999Z,15.77
2022-11-20T00:13:52.790Z,15.75
2022-11-20T00:16:21.432Z,17.25
2022-11-20T00:18:48.923Z,15.60
2022-11-20T00:21:19.090Z,18.42
2022-11-20T00:23:46.523Z,18.33
2022-11-20T00:26:15.218Z,16.48
2022-11-20T00:28:43.160Z,18.10
2022-11-20T00:31:12.346Z,16.85
2022-11-20T00:33:39.781Z,17.13
2022-11-20T00:36:08.227Z,15.13
2022-11-20T00:38:35.926Z,15.73
2022-11-20T00:41:04.246Z,15.38
2022-11-20T00:43:31.666Z,15.68
2022-11-20T00:46:02.677Z,16.88
2022-11-20T00:48:30.090Z,14.93
2022-11-20T00:50:57.928Z,15.45
2022-11-20T00:53:25.436Z,15.60
2022-11-20T00:55:56.367Z,16.40
2022-11-20T00:58:24.178Z,14.35
2022-11-20T01:00:51.387Z,15.35
2022-11-20T01:03:24.140Z,14.35
2022-11-20T01:05:54.096Z,15.18
2022-11-20T01:08:21.339Z,15.52
2022-11-20T01:10:48.461Z,15.35
2022-11-20T01:13:34.336Z,14.98
2022-11-20T01:16:08.997Z,14.57
2022-11-20T01:18:36.835Z,15.60
2022-11-20T01:21:04.804Z,14.82
2022-11-20T01:23:33.210Z,15.52
2022-11-20T01:26:02.088Z,14.90
2022-11-20T01:28:30.062Z,15.25
2022-11-20T01:30:57.235Z,15.35
2022-11-20T01:33:24.672Z,14.15
2022-11-20T01:35:52.175Z,14.27
2022-11-20T01:38:21.026Z,13.63
2022-11-20T01:40:55.283Z,14.02
2022-11-20T01:43:22.503Z,14.25
2022-11-20T01:46:01.031Z,14.38
2022-11-20T01:48:54.215Z,13.85
2022-11-20T01:51:31.251Z,14.02
2022-11-20T01:54:02.157Z,15.13
2022-11-20T01:56:30.287Z,13.60
2022-11-20T01:58:59.970Z,14.82
2022-11-20T02:01:28.330Z,15.55
2022-11-20T02:03:56.096Z,14.07
2022-11-20T02:06:32.549Z,14.55
2022-11-20T02:08:59.764Z,14.75
2022-11-20T02:11:26.910Z,14.27
2022-11-20T02:13:55.292Z,14.50
2022-11-20T02:16:27.656Z,13.73
2022-11-20T02:18:56.594Z,13.18
2022-11-20T02:21:34.807Z,16.33
2022-11-20T02:24:03.251Z,14.98
2022-11-20T02:26:32.074Z,14.77
2022-11-20T02:29:00.514Z,14.52
2022-11-20T02:31:27.656Z,14.23
2022-11-20T02:33:59.002Z,14.60
2022-11-20T02:36:28.397Z,15.38
2022-11-20T02:38:55.851Z,14.93
2022-11-20T02:41:23.284Z,13.88
2022-11-20T02:43:50.442Z,14.38
2022-11-20T02:46:17.618Z,14.23
2022-11-20T02:48:44.794Z,14.48
2022-11-20T02:51:11.973Z,14.05
2022-11-20T02:53:39.101Z,14.43
2022-11-20T02:56:06.488Z,13.90
2022-11-20T02:58:33.903Z,14.32
2022-11-20T03:01:01.200Z,14.82
2022-11-20T03:03:28.386Z,14.32
2022-11-20T03:05:55.508Z,14.20
2022-11-20T03:08:22.889Z,14.18
2022-11-20T03:10:50.035Z,15.32
2022-11-20T03:13:20.062Z,13.00
2022-11-20T03:15:47.215Z,15.30
2022-11-20T03:18:14.876Z,14.13
2022-11-20T03:20:42.030Z,14.15
2022-11-20T03:23:09.164Z,13.68
2022-11-20T03:25:36.584Z,14.15
2022-11-20T03:28:03.750Z,14.85
2022-11-20T03:30:31.166Z,13.65
2022-11-20T03:32:58.549Z,15.32
2022-11-20T03:35:25.761Z,14.77
2022-11-20T03:37:52.922Z,15.48
2022-11-20T03:40:20.108Z,14.98
2022-11-20T03:42:47.429Z,14.32
2022-11-20T03:45:15.751Z,13.40
2022-11-20T03:47:42.975Z,13.57
2022-11-20T03:50:10.817Z,14.43
2022-11-20T03:52:38.154Z,14.38
2022-11-20T03:55:05.552Z,14.82
2022-11-20T03:57:32.707Z,14.20
2022-11-20T03:59:59.839Z,14.73
2022-11-20T04:02:26.998Z,14.68
2022-11-20T04:04:54.140Z,13.63
2022-11-20T04:07:21.385Z,14.57
2022-11-20T04:09:49.218Z,15.18
2022-11-20T04:12:16.364Z,13.95
2022-11-20T04:14:43.514Z,14.13
2022-11-20T04:17:10.684Z,15.63
2022-11-20T04:19:37.836Z,15.18
2022-11-20T04:22:05.187Z,15.20
2022-11-20T04:24:32.407Z,14.75
2022-11-20T04:26:59.635Z,14.48
2022-11-20T04:29:26.829Z,16.05
2022-11-20T04:31:54.019Z,14.05
2022-11-20T04:34:21.171Z,14.20
2022-11-20T04:36:48.330Z,15.05
2022-11-20T04:39:19.182Z,14.73
2022-11-20T04:41:46.520Z,15.52
2022-11-20T04:44:13.676Z,15.07
2022-11-20T04:46:44.377Z,15.75
2022-11-20T04:49:12.456Z,15.52
2022-11-20T04:51:39.701Z,15.20
2022-11-20T04:54:06.911Z,15.45
2022-11-20T04:56:34.151Z,15.95
2022-11-20T04:59:04.503Z,15.52
2022-11-20T05:01:32.001Z,14.45
2022-11-20T05:03:59.191Z,15.77
2022-11-20T05:06:26.340Z,15.18
2022-11-20T05:08:53.519Z,15.00
2022-11-20T05:11:21.870Z,13.85
2022-11-20T05:13:49.387Z,15.88
2022-11-20T05:16:21.147Z,15.07
2022-11-20T05:18:48.882Z,14.77
2022-11-20T05:21:16.170Z,15.38
2022-11-20T05:23:44.013Z,15.88
2022-11-20T05:26:15.339Z,15.65
2022-11-20T05:28:42.463Z,15.70
2022-11-20T05:31:11.463Z,14.38
2022-11-20T05:33:40.961Z,16.73
2022-11-20T05:36:08.447Z,15.57
2022-11-20T05:38:35.876Z,14.68
2022-11-20T05:41:10.698Z,15.98
2022-11-20T05:43:39.053Z,15.63
2022-11-20T05:46:07.118Z,14.93
2022-11-20T05:48:34.531Z,16.58
2022-11-20T05:51:02.563Z,14.98
2022-11-20T05:53:29.798Z,16.05
2022-11-20T05:56:00.937Z,14.45
2022-11-20T05:58:28.264Z,14.05
2022-11-20T06:00:55.749Z,14.80
2022-11-20T06:03:23.192Z,14.32
2022-11-20T06:05:50.343Z,15.77
2022-11-20T06:08:17.611Z,14.98
2022-11-20T06:10:45.005Z,14.73
2022-11-20T06:13:12.160Z,14.73
2022-11-20T06:15:39.448Z,14.10
2022-11-20T06:18:06.964Z,15.43
2022-11-20T06:20:39.252Z,15.55
2022-11-20T06:23:09.622Z,15.60
2022-11-20T06:25:40.608Z,14.25
2022-11-20T06:28:08.146Z,16.20
2022-11-20T06:30:35.406Z,15.38
2022-11-20T06:33:02.949Z,15.00
2022-11-20T06:35:30.163Z,14.43
2022-11-20T06:37:57.963Z,14.68
2022-11-20T06:40:25.192Z,15.05
2022-11-20T06:42:52.432Z,14.60
2022-11-20T06:45:19.867Z,14.55
2022-11-20T06:47:47.047Z,15.15
2022-11-20T06:50:15.188Z,14.52
2022-11-20T06:52:43.872Z,15.27
2022-11-20T06:55:11.126Z,13.15
2022-11-20T06:57:38.663Z,15.90
2022-11-20T07:00:06.110Z,14.13
2022-11-20T07:02:33.315Z,14.85
2022-11-20T07:05:00.505Z,14.85
2022-11-20T07:07:27.687Z,14.45
2022-11-20T07:09:54.865Z,16.10
2022-11-20T07:12:22.415Z,14.35
2022-11-20T07:14:49.618Z,14.73
2022-11-20T07:17:16.917Z,14.13
2022-11-20T07:19:44.143Z,14.85
2022-11-20T07:22:11.382Z,14.30
2022-11-20T07:24:43.162Z,13.82
2022-11-20T07:27:12.962Z,14.02
2022-11-20T07:29:40.577Z,13.27
2022-11-20T07:32:07.709Z,12.82
2022-11-20T07:34:34.864Z,13.93
2022-11-20T07:37:06.047Z,13.35
2022-11-20T07:39:36.208Z,13.23
2022-11-20T07:42:03.421Z,12.73
2022-11-20T07:44:30.544Z,13.27
2022-11-20T07:46:57.687Z,12.88
2022-11-20T07:49:24.941Z,12.90
2022-11-20T07:51:54.248Z,11.82
2022-11-20T07:54:21.940Z,11.52
2022-11-20T07:56:49.865Z,11.77
2022-11-20T07:59:17.100Z,11.73
2022-11-20T08:01:44.574Z,12.50
2022-11-20T08:04:12.380Z,11.63
2022-11-20T08:06:39.516Z,10.73
2022-11-20T08:09:06.676Z,11.95
2022-11-20T08:11:52.700Z,12.60
2022-11-20T08:14:19.836Z,12.43
2022-11-20T08:16:48.072Z,11.50
2022-11-20T08:19:16.270Z,12.35
2022-11-20T08:21:43.612Z,12.15
2022-11-20T08:24:11.405Z,11.88
2022-11-20T08:26:39.310Z,12.65
2022-11-20T08:29:06.991Z,11.88
2022-11-20T08:31:34.194Z,12.23
2022-11-20T08:34:04.967Z,11.55
2022-11-20T08:36:38.482Z,11.10
2022-11-20T08:39:05.831Z,12.07
2022-11-20T08:41:34.195Z,11.38
2022-11-20T08:44:02.850Z,10.57
2022-11-20T08:46:34.501Z,11.60
2022-11-20T08:49:01.644Z,11.63
2022-11-20T08:51:28.881Z,11.88
2022-11-20T08:53:56.032Z,11.20
2022-11-20T08:56:23.223Z,11.43
2022-11-20T09:01:40.010Z,10.52
2022-11-20T09:04:07.264Z,11.25
2022-11-20T09:06:34.492Z,11.43
2022-11-20T09:09:06.325Z,12.07
2022-11-20T09:11:34.147Z,11.25
2022-11-20T09:14:03.646Z,11.60
2022-11-20T09:16:30.969Z,11.68
2022-11-20T09:19:28.283Z,11.98
2022-11-20T09:21:45.252Z,11.55
2022-11-20T09:24:12.666Z,10.27
2022-11-20T09:26:39.824Z,11.10
2022-11-20T09:29:06.949Z,11.55
2022-11-20T09:31:36.248Z,10.77
2022-11-20T09:34:04.001Z,10.85
2022-11-20T09:36:31.203Z,10.02
2022-11-20T09:38:58.432Z,10.95
2022-11-20T09:41:31.372Z,10.80
2022-11-20T09:43:58.605Z,10.70
2022-11-20T09:46:40.218Z,9.93
2022-11-20T09:49:31.844Z,10.18
2022-11-20T09:52:00.659Z,9.73
2022-11-20T09:54:31.736Z,9.65
2022-11-20T09:57:02.139Z,10.15
2022-11-20T09:59:32.381Z,10.88
2022-11-20T10:02:00.961Z,10.75
2022-11-20T10:04:31.437Z,10.35
2022-11-20T10:07:30.769Z,10.82
2022-11-20T10:09:56.456Z,11.45
2022-11-20T10:12:54.355Z,10.15
2022-11-20T10:15:27.515Z,10.20
2022-11-20T10:18:01.303Z,11.38
2022-11-20T10:20:31.831Z,10.57
2022-11-20T10:22:58.968Z,11.15
2022-11-20T10:25:30.251Z,10.48
2022-11-20T10:28:04.483Z,11.00
2022-11-20T10:30:32.779Z,10.95
2022-11-20T10:33:07.149Z,10.27
2022-11-20T10:35:38.961Z,10.15
2022-11-20T10:38:09.706Z,11.40
2022-11-20T10:40:41.697Z,9.98
2022-11-20T10:43:16.720Z,10.57
2022-11-20T10:46:07.140Z,9.63
2022-11-20T10:48:34.455Z,9.27
2022-11-20T10:51:01.714Z,10.02
2022-11-20T10:53:28.923Z,10.07
2022-11-20T10:55:59.738Z,10.05
2022-11-20T10:58:39.142Z,9.38
2022-11-20T11:01:15.509Z,10.55
2022-11-20T11:03:46.467Z,10.27
2022-11-20T11:06:21.963Z,11.43
2022-11-20T11:08:50.972Z,10.90
2022-11-20T11:11:25.594Z,10.90
2022-11-20T11:13:52.950Z,10.85
2022-11-20T11:16:24.739Z,11.13
2022-11-20T11:18:52.352Z,9.82
2022-11-20T11:21:26.377Z,9.80
2022-11-20T11:24:34.546Z,10.63
2022-11-20T11:26:58.325Z,10.10
2022-11-20T11:29:27.780Z,9.85
2022-11-20T11:32:05.331Z,10.07
2022-11-20T11:34:33.071Z,9.98
2022-11-20T11:37:01.288Z,9.02
2022-11-20T11:39:29.428Z,9.95
2022-11-20T11:41:56.588Z,10.18
2022-11-20T11:44:44.884Z,9.02
2022-11-20T11:47:18.052Z,8.20
2022-11-20T11:49:45.198Z,8.27
2022-11-20T11:52:17.282Z,9.02
2022-11-20T11:54:53.627Z,8.88
2022-11-20T11:57:20.801Z,8.82
2022-11-20T12:00:10.492Z,8.10
2022-11-20T12:02:37.923Z,8.20
2022-11-20T12:05:10.575Z,8.48
2022-11-20T12:07:47.121Z,8.48
2022-11-20T12:10:17.331Z,8.18
2022-11-20T12:12:49.975Z,8.10
2022-11-20T12:15:24.747Z,8.45
2022-11-20T12:17:51.964Z,8.68
2022-11-20T12:20:19.508Z,7.43
2022-11-20T12:22:57.890Z,7.80
2022-11-20T12:25:36.543Z,7.43
2022-11-20T12:28:18.196Z,7.57
2022-11-20T12:31:07.949Z,7.13
2022-11-20T12:33:44.493Z,7.97
2022-11-20T12:36:27.010Z,6.85
2022-11-20T12:38:57.134Z,6.80
2022-11-20T12:42:02.888Z,6.82
2022-11-20T12:44:56.622Z,7.03
2022-11-20T12:47:26.675Z,6.32
2022-11-20T12:50:04.035Z,6.43
2022-11-20T12:52:38.370Z,5.85
2022-11-20T12:55:23.024Z,5.40
2022-11-20T12:58:05.806Z,6.53
2022-11-20T13:00:35.369Z,4.70
2022-11-20T13:03:11.521Z,5.13
2022-11-20T13:05:58.044Z,5.20
2022-11-20T13:08:26.785Z,6.15
2022-11-20T13:10:57.050Z,6.93
2022-11-20T13:13:27.711Z,7.15
2022-11-20T13:16:04.255Z,8.30
2022-11-20T13:18:32.728Z,7.53
2022-11-20T13:20:59.964Z,10.20
2022-11-20T13:23:28.752Z,7.70
2022-11-20T13:26:06.866Z,7.10
2022-11-20T13:28:34.409Z,7.72
2022-11-20T13:31:01.611Z,7.75
2022-11-20T13:33:40.984Z,7.13
2022-11-20T13:36:21.655Z,6.88
2022-11-20T13:38:51.482Z,8.35
2022-11-20T13:41:33.191Z,7.88
2022-11-20T13:44:05.288Z,8.68
2022-11-20T13:46:46.467Z,12.45
2022-11-20T13:49:34.307Z,11.70
2022-11-20T13:52:06.831Z,10.70
2022-11-20T13:54:40.653Z,8.80
2022-11-20T13:57:13.955Z,7.15
2022-11-20T13:59:41.132Z,7.65
2022-11-20T14:02:13.396Z,7.88
2022-11-20T14:04:43.179Z,8.80
2022-11-20T14:07:10.897Z,8.02
2022-11-20T14:09:38.124Z,8.02
2022-11-20T14:12:05.963Z,7.63
2022-11-20T14:14:37.317Z,8.18
2022-11-20T14:17:18.695Z,6.93
2022-11-20T14:19:47.036Z,7.40
2022-11-20T14:22:20.178Z,7.03
2022-11-20T14:24:48.022Z,7.97
2022-11-20T14:27:16.976Z,8.18
2022-11-20T14:29:45.419Z,8.35
2022-11-20T14:32:12.689Z,9.15
2022-11-20T14:34:44.140Z,10.05
2022-11-20T14:37:17.213Z,9.85
2022-11-20T14:39:50.078Z,10.60
2022-11-20T14:42:24.555Z,11.00
2022-11-20T14:44:52.799Z,10.98
2022-11-20T14:47:21.320Z,10.65
2022-11-20T14:49:48.908Z,10.82
2022-11-20T14:52:18.171Z,11.02
2022-11-20T14:54:49.919Z,11.63
2022-11-20T14:57:26.680Z,11.82
2022-11-20T15:00:05.542Z,11.65
2022-11-20T15:02:32.850Z,12.20
2022-11-20T15:05:00.774Z,12.65
2022-11-20T15:07:29.409Z,12.98
2022-11-20T15:10:07.279Z,12.40
2022-11-20T15:12:35.519Z,11.13
2022-11-20T15:15:03.631Z,12.50
2022-11-20T15:17:32.416Z,11.20
2022-11-20T15:20:00.944Z,11.00
2022-11-20T15:22:28.121Z,10.75
2022-11-20T15:24:55.878Z,10.98
2022-11-20T15:27:23.051Z,11.43
2022-11-20T15:29:50.247Z,11.85
2022-11-20T15:32:17.403Z,11.95
2022-11-20T15:34:44.783Z,12.93
2022-11-20T15:37:11.932Z,12.07
2022-11-20T15:39:39.084Z,11.75
2022-11-20T15:42:06.243Z,11.07
2022-11-20T15:44:33.422Z,12.38
2022-11-20T15:47:00.715Z,12.82
2022-11-20T15:49:27.899Z,11.27
2022-11-20T15:51:55.085Z,12.30
2022-11-20T15:54:23.635Z,11.73
2022-11-20T15:56:54.813Z,11.98
2022-11-20T15:59:22.256Z,12.75
2022-11-20T16:01:49.496Z,12.23
2022-11-20T16:04:17.651Z,12.32
2022-11-20T16:06:45.148Z,13.65
2022-11-20T16:09:12.309Z,13.35
2022-11-20T16:11:39.511Z,14.32
2022-11-20T16:14:25.762Z,14.07
2022-11-20T16:16:53.485Z,14.60
2022-11-20T16:19:20.937Z,13.40
2022-11-20T16:21:48.197Z,12.50
2022-11-20T16:24:15.819Z,12.23
2022-11-20T16:26:43.435Z,12.68
2022-11-20T16:29:11.166Z,13.30
2022-11-20T16:31:38.386Z,14.27
2022-11-20T16:34:11.812Z,13.95
2022-11-20T16:36:43.131Z,15.27
2022-11-20T16:39:10.583Z,15.35
2022-11-20T16:41:37.812Z,16.80
2022-11-20T16:44:08.583Z,16.98
2022-11-20T16:46:36.106Z,17.13
2022-11-20T16:49:05.010Z,16.58
2022-11-20T16:51:33.353Z,17.83
2022-11-20T16:54:02.730Z,21.10
2022-11-20T16:56:29.898Z,16.67
2022-11-20T16:58:58.099Z,15.13
2022-11-20T17:01:26.583Z,13.77
2022-11-20T17:03:56.869Z,12.68
2022-11-20T17:06:25.786Z,12.10
2022-11-20T17:08:54.509Z,14.52
2022-11-20T17:11:21.899Z,14.65
2022-11-20T17:13:49.450Z,16.13
2022-11-20T17:16:20.817Z,15.63
2022-11-20T17:18:49.968Z,14.73
2022-11-20T17:21:17.753Z,13.88
2022-11-20T17:23:45.690Z,13.25
2022-11-20T17:26:21.665Z,14.35
2022-11-20T17:28:59.753Z,14.13
2022-11-20T17:31:27.511Z,14.25
2022-11-20T17:33:54.782Z,13.68
2022-11-20T17:36:22.048Z,14.20
2022-11-20T17:38:49.371Z,14.80
2022-11-20T17:41:17.853Z,13.82
2022-11-20T17:43:45.300Z,13.98
2022-11-20T17:46:16.971Z,14.55
2022-11-20T17:48:44.520Z,13.38
2022-11-20T17:51:12.734Z,13.75
2022-11-20T17:53:41.490Z,12.57
2022-11-20T17:56:27.718Z,12.50
2022-11-20T17:58:54.961Z,12.70
2022-11-20T18:01:22.249Z,13.23
2022-11-20T18:03:49.637Z,12.60
2022-11-20T18:06:18.739Z,13.50
2022-11-20T18:08:45.978Z,14.40
2022-11-20T18:11:13.264Z,14.68
2022-11-20T18:14:00.083Z,15.18
2022-11-20T18:16:27.424Z,14.68
2022-11-20T18:18:55.764Z,16.52
2022-11-20T18:21:23.582Z,15.30
2022-11-20T18:23:51.331Z,14.80
2022-11-20T18:26:19.372Z,15.45
2022-11-20T18:28:46.808Z,15.90
2022-11-20T18:31:14.412Z,15.18
2022-11-20T18:33:41.705Z,14.60
2022-11-20T18:36:14.640Z,14.27
2022-11-20T18:38:44.773Z,15.43
2022-11-20T18:41:32.957Z,16.35
2022-11-20T18:44:19.386Z,13.93
2022-11-20T18:46:46.611Z,14.32
2022-11-20T18:49:14.196Z,13.77
2022-11-20T18:51:44.076Z,15.40
2022-11-20T18:54:12.160Z,16.05
2022-11-20T18:56:39.448Z,14.20
2022-11-20T18:59:08.672Z,15.32
2022-11-20T19:01:36.573Z,15.13
2022-11-20T19:04:10.830Z,14.95
2022-11-20T19:06:38.535Z,14.32
2022-11-20T19:09:08.808Z,15.75
2022-11-20T19:11:36.655Z,15.73
2022-11-20T19:14:03.915Z,16.27
2022-11-20T19:16:31.624Z,15.50
2022-11-20T19:19:03.547Z,16.00
2022-11-20T19:21:31.124Z,13.80
2022-11-20T19:23:59.761Z,14.18
2022-11-20T19:26:27.368Z,13.23
2022-11-20T19:28:54.899Z,14.25
2022-11-20T19:31:25.006Z,15.10
2022-11-20T19:33:56.269Z,14.80
2022-11-20T19:36:25.297Z,14.80
2022-11-20T19:38:54.027Z,16.02
2022-11-20T19:41:22.509Z,14.85
2022-11-20T19:43:49.960Z,14.70
2022-11-20T19:46:18.805Z,15.20
2022-11-20T19:48:45.994Z,14.02
2022-11-20T19:51:15.011Z,15.05
2022-11-20T19:53:42.311Z,15.65
2022-11-20T19:56:09.664Z,15.98
2022-11-20T19:58:36.875Z,16.83
2022-11-20T20:01:14.312Z,16.45
2022-11-20T20:03:41.909Z,16.40
2022-11-20T20:06:11.103Z,15.93
2022-11-20T20:08:38.823Z,16.55
2022-11-20T20:11:12.925Z,16.98
2022-11-20T20:13:40.295Z,16.13
2022-11-20T20:16:11.376Z,17.30
2022-11-20T20:18:38.549Z,15.70
2022-11-20T20:21:09.921Z,15.50
2022-11-20T20:23:37.320Z,16.20
2022-11-20T20:26:05.489Z,16.38
2022-11-20T20:28:33.103Z,15.73
2022-11-20T20:31:10.134Z,16.20
2022-11-20T20:33:41.101Z,15.07
2022-11-20T20:36:09.105Z,16.25
2022-11-20T20:38:36.567Z,16.40
2022-11-20T20:41:04.209Z,17.50
2022-11-20T20:43:31.606Z,17.13
2022-11-20T20:45:58.886Z,15.80
2022-11-20T20:48:26.269Z,15.93
2022-11-20T20:50:54.047Z,15.45
2022-11-20T20:53:21.702Z,15.25
2022-11-20T20:55:58.810Z,15.60
2022-11-20T20:58:26.345Z,16.20
2022-11-20T21:00:53.513Z,16.08
2022-11-20T21:03:20.956Z,15.93
2022-11-20T21:05:48.156Z,17.35
2022-11-20T21:08:28.336Z,15.02
2022-11-20T21:11:02.611Z,15.77
2022-11-20T21:13:30.330Z,15.77
2022-11-20T21:15:57.993Z,14.20
2022-11-20T21:18:25.556Z,17.30
2022-11-20T21:21:11.467Z,15.85
2022-11-20T21:23:38.851Z,16.90
2022-11-20T21:26:07.399Z,15.38
2022-11-20T21:28:35.373Z,15.32
2022-11-20T21:31:07.203Z,15.70
2022-11-20T21:33:44.108Z,15.07
2022-11-20T21:36:12.099Z,14.95
2022-11-20T21:38:39.493Z,16.33
2022-11-20T21:41:07.774Z,15.27
2022-11-20T21:43:34.914Z,15.60
2022-11-20T21:46:03.235Z,15.98
2022-11-20T21:48:31.398Z,16.48
2022-11-20T21:51:07.027Z,15.30
2022-11-20T21:53:34.806Z,16.15
2022-11-20T21:56:04.199Z,15.65
2022-11-20T21:58:31.691Z,17.35
2022-11-20T22:00:58.912Z,18.17
2022-11-20T22:03:26.103Z,17.02
2022-11-20T22:05:57.143Z,17.52
2022-11-20T22:08:25.207Z,16.83
2022-11-20T22:10:56.590Z,16.70
2022-11-20T22:13:42.956Z,16.15
2022-11-20T22:16:10.293Z,16.00
2022-11-20T22:18:37.608Z,16.17
2022-11-20T22:21:07.876Z,15.77
2022-11-20T22:23:35.670Z,16.38
2022-11-20T22:26:03.723Z,16.65
2022-11-20T22:28:30.964Z,17.63
2022-11-20T22:30:59.391Z,18.55
2022-11-20T22:33:30.075Z,16.70
2022-11-20T22:36:04.495Z,15.70
2022-11-20T22:38:36.410Z,16.77
2022-11-20T22:41:10.595Z,16.58
2022-11-20T22:43:38.128Z,17.35
2022-11-20T22:46:09.573Z,17.40
2022-11-20T22:48:37.748Z,17.40
2022-11-20T22:51:06.218Z,17.23
2022-11-20T22:53:33.624Z,18.67
2022-11-20T22:56:01.725Z,17.83
2022-11-20T22:58:29.831Z,18.63
2022-11-20T23:00:57.528Z,17.40
2022-11-20T23:03:24.802Z,18.00
2022-11-20T23:05:52.063Z,18.65
2022-11-20T23:08:19.219Z,18.30
2022-11-20T23:10:46.468Z,16.73
2022-11-20T23:13:13.625Z,16.60
2022-11-20T23:15:40.808Z,17.60
2022-11-20T23:18:07.958Z,18.48
2022-11-20T23:20:37.974Z,18.77
2022-11-20T23:23:05.238Z,17.17
2022-11-20T23:25:32.412Z,18.48
2022-11-20T23:27:59.596Z,18.30
2022-11-20T23:30:26.732Z,18.40
2022-11-20T23:32:53.900Z,17.60
2022-11-20T23:35:21.152Z,18.70
2022-11-20T23:37:48.271Z,17.58
2022-11-20T23:40:15.591Z,18.45
2022-11-20T23:43:02.757Z,17.33
2022-11-20T23:45:29.895Z,17.48
2022-11-20T23:47:57.123Z,17.20
2022-11-20T23:50:24.382Z,19.13
2022-11-20T23:52:51.527Z,18.23
2022-11-20T23:55:18.694Z,17.23
2022-11-20T23:57:45.897Z,18.05
